Livingston, AL (35470)

2:58 PM CDT on September 01, 2014 (GMT -0500)
Demopolis Municipal Airport | Change Station
CLOSE
Current Station
Airport
Location: Demopolis Municipal Airport,
Elevation: 112 ft
Nearby Weather Stations

Elev 112 ft 32.46 °N, 87.95 °W | Updated 23 minutes ago

Clear
Clear
95 °F
Feels Like 98 °F
N
10
Wind Variable Wind from South

Today
High -- | Low -- °F
--% Chance of Precip.
Yesterday
High -- | Low -- °F
Precip. -- in
6:27 AM 7:17 PM
Waxing Crescent, 43% visible
Pressure 30.04 in
Visibility 10.0 miles
Clouds Clear
Heat Index 98 °F
Dew Point 65 °F
Humidity 38%
Rainfall 0.00 in
Snow Depth Not available.
UV 9 out of 12
Pollen 9.70 out of 12
Air Quality Not available.
Flu Activity Not available.
METAR KDYA 011935Z AUTO 17009KT 10SM CLR 35/19 A3004 RMK AO2 T03490185

More Conditions Fewer Conditions

Pressure 30.04 in
Visibility 10.0 miles
Clouds Clear
Heat Index 98 °F
Dew Point 65 °F
Humidity 38%
Rainfall 0.00 in
Snow Depth Not available.
UV 9 out of 12
Pollen 9.70 out of 12
Air Quality Not available.
Flu Activity Not available.
METAR KDYA 011935Z AUTO 17009KT 10SM CLR 35/19 A3004 RMK AO2 T03490185

More Conditions Fewer Conditions

10-Day Weather Forecast

Almanac

Astronomy

Sep. 01, 2014 Rise Set
Actual Time 6:27 AM CDT 7:17 PM CDT
Civil Twilight 6:02 AM CDT 7:42 PM CDT
Nautical Twilight 5:32 AM CDT 8:11 PM CDT
Astronomical Twilight 5:02 AM CDT 8:42 PM CDT
Moon 12:50 PM CDT 11:40 PM CDT
Length of Visible Light 13h 39m
Length of Day
12h 49m
Tomorrow will be 1m 55s shorter.
Waxing Crescent, 43% of the Moon is Illuminated
Today
Waxing Crescent
Sep 2
First Quarter
Sep 8
Full
Sep 15
Last Quarter
Sep 24
New

Today's Extremes

State Highs State Lows

Community

WunderPhotos

Upload Photos

1,749,387 photos uploaded!

WunderBlogs® & News

Nearby

Snow Depth

Station Depth Elevation
No new snow has been reported.

Earthquake Activity

City Distance Mag. Time & Date
No recent earthquake activity has been reported nearby.
Minimum magnitude displayed is 2.5.

Coastal Water Temperatures

Place Temperature
No Stations Reporting

Nearby Weather Stations